Date,TemperatureHighF,TemperatureAvgF,TemperatureLowF,DewpointHighF,DewpointAvgF,DewpointLowF,HumidityHigh,HumidityAvg,HumidityLow,PressureMaxIn,PressureMinIn,WindSpeedMaxMPH,WindSpeedAvgMPH,GustSpeedMaxMPH,PrecipitationSumIn
2013-1-1,53.5,44.6,37.9,39.2,35.0,32.5,82,70,53,30.27,30.19,19,4,21,0.00
2013-1-2,59.2,46.8,36.9,38.7,34.3,30.6,80,63,39,30.24,30.13,13,5,19,0.00
2013-1-3,60.2,47.9,35.9,40.8,35.1,29.0,79,63,35,30.25,30.16,13,4,17,0.00
2013-1-4,61.3,48.8,39.5,46.6,40.3,34.8,89,74,39,30.28,30.18,11,3,17,0.00
2013-1-5,55.0,49.2,43.6,47.8,44.9,41.9,96,86,64,30.29,30.11,10,1,13,0.26
2013-1-6,50.8,46.2,40.5,48.3,44.0,37.8,97,92,76,30.21,30.07,6,1,14,0.30
2013-1-7,55.7,47.4,39.5,47.1,43.1,37.3,96,86,68,30.28,30.16,7,1,11,0.01
2013-1-8,61.8,51.1,42.9,49.0,44.1,39.8,91,78,59,30.23,30.13,13,6,20,0.00
2013-1-9,54.1,48.5,42.1,48.8,44.0,38.5,92,84,74,30.15,30.02,9,2,17,0.03
2013-1-10,53.3,43.4,37.2,39.0,35.3,30.6,92,75,43,30.21,30.07,6,1,13,0.01
2013-1-11,51.3,42.7,35.6,41.2,34.7,30.5,85,74,52,30.29,30.15,9,1,142,0.00
2013-1-12,49.9,42.2,37.0,37.3,32.7,24.1,89,71,44,30.27,30.15,10,2,11,0.00
2013-1-13,48.6,39.6,29.8,32.2,24.5,15.7,81,56,37,30.27,30.17,8,3,14,0.00
2013-1-14,49.4,39.9,30.4,24.8,20.7,15.8,68,47,29,30.42,30.22,12,3,13,0.00
2013-1-15,54.1,42.8,33.5,32.6,26.0,22.5,66,53,32,30.50,30.40,13,3,13,0.00
2013-1-16,59.6,46.8,36.3,36.4,30.8,26.6,70,55,37,30.43,30.25,11,4,14,0.00
2013-1-17,65.3,52.9,41.3,38.7,33.6,28.8,67,49,34,30.25,30.12,17,7,19,0.00
2013-1-18,67.3,54.3,44.6,41.1,36.5,32.3,68,52,34,30.21,30.12,13,6,18,0.00
2013-1-19,67.1,54.1,42.8,42.9,36.9,33.2,69,53,35,30.23,30.14,12,6,17,0.00
2013-1-20,68.8,54.5,41.1,39.8,35.1,30.2,68,49,28,30.22,30.10,16,5,19,0.00
2013-1-21,68.4,54.6,40.8,41.2,35.0,30.0,71,49,28,30.17,30.06,13,5,18,0.00
2013-1-22,68.6,57.3,45.5,40.2,35.0,29.6,62,45,24,30.10,30.01,15,3,18,0.00
2013-1-23,60.9,54.7,50.5,46.7,39.7,33.8,84,58,40,30.08,29.97,10,1,11,0.00
2013-1-24,55.6,53.2,50.1,53.3,50.7,47.2,96,91,82,30.19,30.05,9,3,13,0.07
2013-1-25,66.4,57.8,52.6,58.1,54.0,51.2,96,88,74,30.19,30.03,12,4,18,0.00
2013-1-26,59.2,52.8,43.3,53.7,47.5,38.1,96,83,59,30.11,30.00,11,1,16,0.00
2013-1-27,55.1,46.0,41.2,40.9,37.6,32.1,90,74,50,30.19,30.10,7,1,12,0.00
2013-1-28,57.6,47.0,38.2,43.7,38.3,35.1,91,73,44,30.30,30.18,11,1,16,0.00
2013-1-29,55.0,47.0,39.5,45.4,41.6,36.8,94,82,65,30.37,30.27,6,1,10,0.00
2013-1-30,65.0,51.8,42.2,47.8,42.5,38.1,88,72,49,30.37,30.27,8,2,12,0.00
2013-1-31,67.1,53.6,41.5,47.4,42.6,38.0,89,68,45,30.29,30.17,11,4,16,0.00
2013-2-1,69.1,52.5,44.8,51.6,44.6,40.7,94,76,45,30.25,30.12,18,4,19,0.00
2013-2-2,58.7,48.8,43.2,50.7,45.9,42.1,97,90,75,30.30,30.22,7,1,16,0.00
2013-2-3,56.9,49.3,44.6,47.7,45.4,42.1,97,87,68,30.27,30.15,11,2,142,0.00
2013-2-4,64.3,48.8,40.2,51.0,44.5,38.6,96,86,53,30.19,30.08,12,2,16,0.00
2013-2-5,52.6,47.9,43.9,47.2,45.3,41.4,96,91,78,30.16,30.08,7,1,11,0.01
2013-2-6,57.6,48.4,41.1,46.4,43.4,39.1,94,84,65,30.22,30.14,10,2,12,0.01
2013-2-7,54.1,46.9,40.8,47.1,41.1,37.0,93,81,67,30.20,30.04,13,2,17,0.03
2013-2-8,53.1,44.8,40.9,43.5,39.0,35.5,96,81,53,30.03,29.96,6,1,13,0.08
2013-2-9,54.8,44.6,36.2,40.5,37.4,32.5,94,78,46,30.12,30.01,11,2,14,0.00
2013-2-10,57.3,45.2,35.0,44.2,37.5,30.9,93,76,43,30.14,30.03,10,2,13,0.00
2013-2-11,61.6,47.9,38.2,42.7,38.3,33.0,94,72,35,30.25,30.08,9,2,14,0.01
2013-2-12,60.7,47.3,37.6,46.0,40.5,35.7,94,79,42,30.37,30.26,10,2,12,0.01
2013-2-13,62.1,48.6,39.8,48.5,42.6,36.5,94,81,54,30.35,30.24,8,2,12,0.00
2013-2-14,70.1,55.6,40.8,46.8,42.1,38.0,94,64,37,30.24,30.14,10,4,17,0.00
2013-2-15,76.5,59.9,46.7,45.1,40.8,32.8,75,53,21,30.26,30.20,12,3,16,0.00
2013-2-16,73.9,57.2,45.1,46.9,41.8,35.2,92,59,25,30.23,30.06,12,3,14,0.00
2013-2-17,57.8,49.3,45.1,48.4,45.7,42.9,97,88,69,30.08,29.99,11,2,13,0.00
2013-2-18,52.5,47.2,43.9,47.2,43.0,38.8,97,86,68,30.08,30.01,12,3,16,0.01
2013-2-19,48.5,43.2,36.2,44.3,39.1,33.5,93,86,76,30.01,29.79,17,2,24,0.30
2013-2-20,56.3,44.9,34.1,42.9,37.8,31.7,93,78,52,30.09,29.85,8,2,12,0.01
2013-2-21,59.3,48.1,40.1,45.6,39.8,37.0,94,75,44,30.20,30.07,10,2,13,0.00
2013-2-22,59.9,48.7,37.6,44.9,40.1,32.9,90,73,45,30.28,30.19,10,2,13,0.00
2013-2-23,61.0,51.0,44.1,46.5,40.0,32.7,94,69,35,30.27,30.14,12,2,17,0.00
2013-2-24,61.2,50.2,40.5,40.5,33.3,25.9,83,55,27,30.27,30.16,12,3,14,0.00
2013-2-25,60.7,48.1,37.6,47.2,37.9,29.9,93,70,38,30.30,30.18,11,2,13,0.00
2013-2-26,65.8,51.3,40.6,42.2,39.4,35.0,94,68,34,30.22,30.12,12,3,17,0.01
2013-2-27,67.3,51.9,41.9,46.3,38.1,29.5,92,62,29,30.39,30.22,11,3,16,0.00
2013-2-28,66.4,54.0,43.8,51.6,45.9,38.3,93,76,53,30.46,30.38,10,2,16,0.00
2013-3-1,75.4,61.3,48.2,52.6,49.3,45.1,91,67,41,30.44,30.22,13,4,18,0.00
2013-3-2,72.8,58.1,49.6,51.5,47.7,44.2,95,71,38,30.24,30.10,19,3,21,0.00
2013-3-3,59.3,50.7,47.9,51.9,48.4,46.0,97,92,76,30.14,30.08,12,3,16,0.00
2013-3-4,59.0,49.0,42.9,49.6,45.3,40.1,96,87,68,30.17,30.09,17,2,17,0.00
2013-3-5,55.6,48.7,43.9,44.3,42.6,39.1,94,80,61,30.12,29.95,13,3,20,0.01
2013-3-6,55.4,50.0,45.4,48.2,43.7,39.1,95,80,56,30.11,29.94,18,5,22,0.28
2013-3-7,58.1,48.5,41.8,45.8,42.2,37.9,94,81,49,30.02,29.87,8,1,14,0.24
2013-3-8,57.2,48.5,43.9,48.1,43.5,39.3,96,84,67,30.11,29.84,16,3,20,0.02
2013-3-9,59.3,51.1,44.2,48.0,43.5,39.3,90,76,60,30.33,30.11,12,2,14,0.00
2013-3-10,63.1,50.0,40.6,49.0,44.1,37.9,94,82,51,30.36,30.28,12,2,14,0.00
2013-3-11,70.6,53.3,43.3,51.9,44.2,39.3,95,74,39,30.28,30.13,12,3,14,0.01
2013-3-12,69.1,53.0,41.5,55.4,47.1,39.9,96,82,56,30.16,30.08,10,2,12,0.00
2013-3-13,79.4,58.0,43.5,55.6,48.7,40.7,93,74,37,30.16,30.07,10,3,14,0.01
2013-3-14,66.8,54.6,43.8,55.4,49.4,42.7,98,84,63,30.18,30.10,10,2,13,0.01
2013-3-15,72.0,56.5,46.8,54.1,47.5,41.6,90,73,48,30.15,30.06,10,2,17,0.00
2013-3-16,70.3,53.3,47.3,54.8,48.7,45.4,98,86,58,30.12,30.04,14,3,18,0.00
2013-3-17,65.0,52.6,46.1,50.2,45.7,43.3,91,79,55,30.16,30.07,13,3,16,0.00
2013-3-18,63.7,51.1,41.8,49.7,44.8,39.6,94,80,54,30.14,30.05,12,2,17,0.00
2013-3-19,70.8,55.2,47.3,49.1,44.8,36.0,90,71,28,30.18,30.07,12,4,17,0.04
2013-3-20,65.0,56.6,51.9,54.0,49.6,34.3,95,79,35,30.14,30.09,11,2,14,0.00
2013-3-21,62.4,53.6,45.4,52.6,46.8,42.6,97,79,52,30.13,30.01,12,3,14,0.03
2013-3-22,70.9,54.0,43.3,45.2,38.5,18.7,91,63,15,30.09,30.01,12,3,13,0.00
2013-3-23,68.8,52.7,40.6,45.5,38.6,27.5,81,62,22,30.14,30.06,10,3,14,0.00
2013-3-24,66.6,51.5,42.1,48.2,42.5,36.0,90,73,44,30.11,30.00,11,2,14,0.00
2013-3-25,60.5,50.7,42.1,50.6,45.3,40.7,96,83,65,30.04,29.97,12,3,14,0.01
2013-3-26,64.7,51.8,43.3,49.6,45.6,40.5,92,81,53,30.02,29.96,13,4,17,0.00
2013-3-27,66.4,54.3,45.5,53.2,48.9,42.9,96,83,59,30.05,29.98,16,3,19,0.00
2013-3-28,66.9,57.2,51.6,55.9,52.8,49.3,96,86,66,30.11,30.03,14,2,17,0.00
2013-3-29,72.3,55.1,47.6,57.3,50.5,45.9,97,86,53,30.10,30.05,16,4,21,0.01
2013-3-30,67.3,56.4,50.4,54.7,50.9,49.5,98,83,56,30.11,30.02,13,2,19,0.00
2013-3-31,68.4,58.5,52.2,56.2,51.3,45.8,97,79,47,30.09,30.00,16,3,24,0.02
2013-4-1,63.9,56.1,52.6,56.8,51.9,49.4,97,87,65,30.18,30.07,14,2,18,0.18
2013-4-2,66.4,55.8,49.8,54.8,50.7,48.7,96,84,64,30.20,30.10,12,3,14,0.00
2013-4-3,77.4,54.9,48.8,60.0,51.0,47.7,98,88,44,30.15,30.01,12,3,18,0.00
2013-4-4,61.0,53.7,48.8,57.7,52.1,47.7,98,94,84,30.14,30.05,11,3,13,0.10
2013-4-5,63.2,56.5,52.8,55.8,52.4,49.9,99,87,68,30.20,30.14,13,3,20,0.00
2013-4-6,65.5,56.3,50.1,55.3,51.6,48.2,95,85,60,30.22,30.16,14,3,18,0.00
2013-4-7,63.5,55.5,50.7,53.7,50.6,47.2,93,84,66,30.20,29.92,12,4,17,0.02
2013-4-8,67.1,55.3,46.4,51.0,39.4,28.8,96,60,24,30.01,29.86,21,3,26,0.08
2013-4-9,75.4,61.4,44.8,45.4,36.7,28.8,88,46,18,30.07,29.99,11,2,21,0.00
2013-4-10,77.7,62.3,50.8,52.7,46.3,39.6,91,59,30,30.17,30.05,11,3,14,0.00
2013-4-11,63.4,53.8,47.9,50.7,48.5,44.6,96,83,60,30.10,29.89,11,4,16,0.00
2013-4-12,64.5,52.6,44.3,52.1,47.1,42.6,95,83,60,29.95,29.88,12,3,14,0.00
2013-4-13,63.2,53.2,46.2,51.4,46.8,43.0,96,80,60,29.95,29.87,12,4,17,0.00
2013-4-14,63.2,52.3,43.6,48.0,43.3,39.8,91,74,43,29.95,29.88,12,3,16,0.00
2013-4-15,49.8,49.0,47.7,48.3,47.1,44.6,96,93,89,29.93,29.89,8,3,12,0.00
2013-5-27,65.6,63.6,59.3,55.7,53.8,48.3,85,71,64,30.14,30.06,12,6,14,0.00
2013-5-28,70.3,64.9,62.4,58.7,54.6,52.7,81,70,62,30.05,29.94,11,6,18,0.00
2013-5-29,71.5,41.9,-90.0,56.8,29.2,-95.0,69,62,47,30.13,29.90,13,5,18,0.00
2013-5-30,70.6,66.5,61.0,53.7,50.4,45.6,64,57,44,30.02,29.95,12,6,16,0.00
2013-5-31,80.5,67.1,61.0,53.5,49.2,47.0,64,54,31,30.02,29.93,11,7,13,0.00
2013-6-1,79.4,71.1,68.8,55.8,50.6,48.8,53,49,38,29.95,29.81,12,6,13,0.00
2013-6-2,69.8,63.4,55.9,52.1,50.9,49.7,81,65,53,29.82,29.78,14,9,19,0.00
2013-6-3,64.0,59.2,56.5,54.1,50.5,49.7,78,73,65,29.90,29.78,17,9,18,0.00
2013-6-4,64.7,61.4,60.5,54.4,51.6,49.8,75,70,68,30.00,29.88,15,7,20,0.00
2013-6-5,64.2,60.2,57.5,53.2,51.9,50.3,78,74,66,30.02,29.98,14,11,19,0.00
2013-6-6,64.5,58.9,27.7,53.9,51.0,18.8,78,76,64,29.99,29.92,142,10,142,0.00
2013-6-7,72.0,61.8,58.0,61.2,52.9,51.1,78,73,59,29.97,29.79,12,6,14,0.00
2013-6-8,65.8,62.5,61.2,56.1,54.1,52.4,81,74,69,29.87,29.79,18,5,20,0.00
2013-6-9,61.6,61.6,61.6,53.9,53.9,53.9,76,76,76,29.92,29.85,5,5,0,0.00
2013-6-10,68.1,63.3,61.6,54.6,53.7,52.4,76,71,59,29.98,29.89,17,6,18,0.00
2013-6-11,70.1,63.9,62.0,56.4,54.1,53.5,75,70,61,30.00,29.93,14,7,16,0.00
2013-6-12,69.3,63.3,62.1,54.0,52.8,50.9,75,69,55,30.05,29.94,12,6,17,0.00
2013-6-13,72.1,63.5,52.2,52.9,50.3,46.3,86,63,43,30.11,30.02,11,6,16,0.00
2013-6-14,79.9,63.1,48.8,52.5,48.7,45.3,91,64,31,30.02,29.86,12,3,14,0.00
2013-6-15,60.7,53.6,50.1,51.4,50.1,49.0,96,88,70,30.05,29.87,14,5,18,0.00
2013-6-16,72.3,59.7,50.7,55.1,51.8,49.6,98,78,50,30.12,30.04,12,3,16,0.00
2013-6-17,72.3,61.5,51.3,56.6,53.1,48.1,95,76,54,30.11,30.04,13,3,14,0.00
2013-6-18,70.3,60.7,53.5,55.1,51.3,46.7,96,73,50,30.07,29.98,13,3,19,0.00
2013-6-19,70.6,59.7,50.1,50.5,48.8,46.9,91,69,44,30.07,30.01,14,4,17,0.00
2013-6-20,73.2,59.6,49.2,53.0,48.7,45.7,90,69,43,30.04,29.97,12,3,14,0.00
2013-6-21,73.0,58.6,49.4,54.4,50.3,47.1,93,76,46,30.01,29.95,16,3,19,0.00
2013-6-22,76.0,59.6,47.3,56.8,51.2,45.4,96,76,48,29.96,29.88,16,4,18,0.00
2013-6-23,65.6,58.4,54.1,58.1,55.7,52.6,97,91,75,29.93,29.86,11,3,16,0.00
2013-6-24,61.2,59.0,57.5,60.9,58.3,56.6,99,98,97,29.95,29.83,7,2,11,0.03
2013-6-25,71.5,62.9,57.3,65.5,59.9,56.7,99,91,68,30.03,29.95,11,3,17,0.02
2013-6-26,80.9,67.6,59.8,66.5,61.3,58.6,98,82,60,30.06,29.99,13,3,17,0.00
2013-6-27,84.1,71.7,60.7,63.7,59.4,56.4,90,68,40,30.07,30.01,11,3,13,0.00
2013-6-28,85.7,71.4,59.8,63.2,57.3,54.2,83,63,41,30.03,29.92,13,2,17,0.00
2013-6-29,87.6,69.1,57.3,61.8,56.0,52.4,87,66,38,29.95,29.84,11,3,14,0.00
2013-6-30,79.8,65.9,54.5,60.3,56.0,52.2,94,73,47,29.88,29.81,11,2,13,0.00
2013-7-1,77.4,65.0,55.0,60.8,56.3,52.7,93,75,49,29.91,29.82,14,3,18,0.00
2013-7-2,78.5,63.3,55.7,61.6,56.8,54.1,96,81,52,29.98,29.87,17,4,21,0.00
2013-7-3,76.0,63.3,55.6,63.0,57.3,54.7,98,83,56,29.96,29.82,12,4,18,0.00
2013-7-4,74.7,62.3,56.0,60.5,56.8,54.0,98,84,58,29.83,29.78,16,4,16,0.00
2013-7-5,61.6,57.3,55.0,54.5,53.2,51.8,93,86,76,29.86,29.80,15,6,20,0.00
2013-7-6,62.9,56.0,53.3,53.9,52.2,51.3,94,87,72,29.86,29.81,14,5,18,0.00
2013-7-7,65.6,57.7,53.3,54.7,52.9,51.6,96,85,66,29.90,29.83,16,5,21,0.00
2013-7-8,67.8,58.0,54.1,55.8,53.3,51.9,95,85,64,30.01,29.90,13,4,17,0.00
2013-7-9,77.0,60.9,52.9,59.1,54.9,52.0,98,83,53,30.03,29.98,12,4,14,0.00
2013-7-10,66.6,57.7,52.5,60.6,54.4,51.9,99,89,70,30.03,29.96,12,4,16,0.00
2013-7-11,63.2,55.7,52.5,54.8,52.5,51.3,97,90,71,29.98,29.95,14,3,18,0.00
2013-7-12,65.6,57.0,52.9,55.5,52.5,50.9,94,86,68,29.98,29.94,13,4,17,0.00
2013-7-13,68.3,57.4,51.1,56.5,52.8,50.2,98,86,63,30.00,29.94,12,4,16,0.00
2013-7-14,65.0,56.4,51.6,56.7,52.8,50.2,98,89,69,30.04,29.96,12,4,18,0.00
2013-7-15,63.5,55.6,51.9,54.4,52.7,51.3,98,91,71,29.97,29.89,12,4,17,0.01
2013-7-16,65.6,58.4,55.0,56.9,54.6,52.5,98,88,67,30.05,29.92,16,4,19,0.03
2013-7-17,68.8,61.6,54.4,57.9,55.6,52.9,95,82,66,30.10,30.04,12,4,17,0.00
2013-7-18,67.8,56.9,52.3,58.4,53.8,51.1,98,90,71,30.09,30.00,14,3,16,0.00
2013-7-19,66.9,55.8,52.5,56.3,53.2,51.6,99,92,67,29.99,29.89,12,3,14,0.00
2013-7-20,60.5,54.4,52.0,56.6,52.8,51.7,100,95,79,29.91,29.83,12,4,17,0.00
2013-7-21,66.8,56.8,52.3,56.5,53.7,51.4,99,90,69,29.94,29.82,16,4,19,0.00
2013-7-22,70.3,60.3,54.7,60.7,56.8,53.8,99,89,70,29.98,29.91,12,4,17,0.00
2013-7-23,72.1,62.1,56.5,60.5,57.1,55.3,97,85,66,30.03,29.98,14,4,18,0.00
2013-7-24,70.9,59.9,53.9,61.1,56.4,53.6,99,89,64,30.01,29.95,13,3,16,0.00
2013-7-25,66.1,57.5,52.5,58.6,54.9,52.2,100,92,73,30.07,29.97,13,3,17,0.00
2013-7-26,65.6,57.6,53.8,58.3,55.3,53.5,100,93,73,30.14,30.06,13,4,17,0.00
2013-7-27,66.0,57.5,54.1,60.3,55.2,54.0,100,93,73,30.07,29.92,13,4,18,0.01
2013-7-28,60.5,56.1,53.9,57.0,54.5,53.3,100,95,85,29.93,29.89,13,4,157,0.00
2013-7-29,63.9,58.1,55.1,56.8,54.5,53.4,95,88,76,30.06,29.91,15,4,19,0.00
2013-7-30,66.3,59.2,56.2,56.5,54.4,53.4,91,85,70,30.12,30.06,18,5,21,0.00
2013-7-31,63.2,57.5,54.5,54.3,53.0,51.4,94,85,72,30.13,30.06,13,4,18,0.00
2013-8-1,70.8,60.1,53.8,55.3,53.3,52.1,95,80,54,30.11,30.00,13,4,17,0.00
2013-8-2,66.9,56.8,51.4,55.4,52.9,49.1,97,88,65,30.02,29.97,14,4,17,0.00
2013-8-3,63.4,55.8,52.9,57.1,53.2,52.0,98,92,71,30.03,29.97,12,4,17,0.00
2013-8-4,62.1,55.0,51.6,55.4,52.6,51.0,98,92,75,30.05,30.00,13,4,16,0.00
2013-8-5,67.1,56.6,53.3,58.4,53.7,52.4,98,91,70,30.05,30.00,12,3,17,0.01
2013-8-6,62.3,56.5,53.5,55.7,53.8,52.3,97,91,76,30.09,30.00,13,3,18,0.00
2013-8-7,66.8,59.9,55.9,57.5,55.2,53.9,96,85,67,30.14,30.06,13,4,18,0.02
2013-8-8,67.6,59.2,55.6,59.0,55.3,52.6,98,88,68,30.06,29.98,15,4,18,0.01
2013-8-9,67.6,59.3,55.1,57.2,54.8,52.8,93,86,67,30.03,29.95,13,3,18,0.00
2013-8-10,77.3,60.7,56.9,75.1,56.8,54.9,96,88,66,30.06,30.01,154,6,18,0.00
2013-8-11,77.3,64.4,56.5,76.3,61.4,54.4,98,90,71,30.04,29.99,154,28,16,0.00
2013-8-12,70.3,58.9,53.5,59.6,55.3,52.9,98,89,66,30.03,29.97,14,4,18,0.00
2013-8-13,72.8,59.7,51.6,63.0,54.7,50.7,98,85,59,30.02,29.95,12,3,14,0.00
2013-8-14,77.6,62.8,52.5,62.4,55.8,50.0,98,80,46,30.01,29.92,10,2,13,0.00
2013-8-15,81.4,68.6,62.3,70.7,60.2,57.7,96,76,48,29.97,29.92,13,2,13,0.00
2013-8-16,81.4,66.4,-33.0,67.0,59.2,-34.0,96,79,57,30.03,29.94,12,3,14,0.00
2013-8-17,75.1,35.9,-33.0,60.6,31.0,-34.0,97,84,59,30.04,29.92,142,40,142,0.00
2013-8-18,79.4,62.0,56.5,63.5,57.4,54.8,98,86,55,29.93,29.82,14,3,16,0.00
2013-8-19,73.3,60.7,55.4,60.9,56.4,54.8,98,87,62,29.95,29.85,17,4,20,0.00
2013-8-20,65.0,58.3,55.0,57.7,55.4,53.8,99,91,75,29.95,29.88,15,5,20,0.00
2013-8-21,68.9,60.4,56.0,55.9,54.5,53.6,92,82,62,29.96,29.89,16,4,18,0.00
2013-8-22,70.4,60.7,53.8,57.7,54.9,52.6,97,83,59,30.00,29.92,13,4,18,0.00
2013-8-23,71.3,61.3,56.0,58.3,55.5,53.7,94,83,63,29.95,29.84,12,3,16,0.00
2013-8-24,74.2,62.4,55.0,61.3,56.5,53.8,97,83,56,29.93,29.86,11,3,14,0.00
2013-8-25,79.2,65.4,58.3,62.0,59.1,55.4,96,82,54,29.97,29.90,21,4,21,0.00
2013-8-26,74.0,63.9,58.3,62.4,57.9,52.4,97,82,60,30.02,29.91,17,2,17,0.00
2013-8-27,75.3,62.1,54.8,58.7,54.4,45.0,91,77,49,29.92,29.83,13,3,14,0.00
2013-8-28,76.7,64.1,56.2,61.1,58.2,54.9,97,83,57,29.96,29.86,154,19,16,0.00
2013-8-29,78.5,66.2,58.6,69.0,60.1,56.8,98,82,60,30.05,29.96,154,25,14,0.00
2013-8-30,113.1,75.2,60.7,99.9,63.9,56.9,95,73,46,30.05,29.91,150,17,13,0.00
2013-8-31,81.4,65.9,56.0,61.5,57.3,53.7,94,77,45,29.98,29.92,12,2,12,0.00
2013-9-1,80.5,67.2,57.5,60.7,57.9,55.1,94,75,47,29.95,29.89,11,3,16,0.00
2013-9-2,82.6,67.8,62.0,63.2,60.4,59.1,92,79,48,29.96,29.90,11,2,16,0.00
2013-9-3,79.0,67.6,59.0,61.6,57.1,49.5,95,72,36,29.99,29.93,11,2,13,0.00
2013-9-4,78.5,66.6,56.2,58.8,56.1,53.5,93,72,45,30.04,29.95,13,3,16,0.00
2013-9-5,80.3,64.9,-33.0,59.4,54.9,-34.0,95,73,43,30.06,29.94,142,3,142,0.00
2013-9-6,91.2,69.8,56.0,57.0,53.1,46.5,86,60,23,30.01,29.83,11,3,14,0.00
2013-9-7,87.2,67.0,58.0,58.9,54.2,49.3,96,66,35,29.90,29.84,14,3,17,0.00
2013-9-8,73.0,60.1,54.8,60.2,56.3,54.1,98,89,59,29.90,29.81,13,3,14,0.00
2013-9-9,75.4,60.3,54.1,63.4,56.3,53.5,98,88,57,29.83,29.77,11,3,15,0.00
2013-9-10,65.6,59.6,55.7,59.8,56.9,55.1,99,91,77,29.94,29.78,16,4,19,0.01
2013-9-11,69.1,62.5,59.2,58.1,56.4,55.2,89,81,64,30.02,29.93,12,4,16,0.00
2013-9-12,72.8,62.6,57.6,60.4,57.6,55.3,96,85,65,29.99,29.92,13,3,16,0.00
2013-9-13,72.3,61.5,56.5,63.3,57.3,54.7,98,87,64,29.92,29.80,11,2,13,0.00
2013-9-14,73.5,61.4,53.6,59.1,55.7,52.4,97,83,58,29.84,29.76,11,2,13,0.00
2013-9-15,76.1,63.4,52.5,58.7,55.9,51.1,96,78,52,29.87,29.80,11,3,14,0.00
2013-9-16,75.6,65.1,58.0,61.1,57.6,55.1,93,78,58,29.90,29.82,11,3,14,0.01
2013-9-17,75.4,62.2,54.7,59.2,54.5,50.6,96,78,42,29.93,29.85,13,4,18,0.00
2013-9-18,77.6,62.9,51.9,56.3,52.0,48.9,93,71,40,29.92,29.84,11,3,16,0.00
2013-9-19,87.4,65.0,52.9,53.8,49.1,39.8,86,61,19,29.87,29.76,10,2,14,0.00
2013-9-20,70.4,60.6,52.9,60.2,55.3,47.8,94,84,64,29.90,29.79,12,3,16,0.00
2013-9-21,68.3,61.7,57.0,61.2,58.2,55.0,97,89,71,29.93,29.85,19,4,27,0.06
2013-9-22,68.6,51.8,10.6,57.5,45.3,9.2,97,80,61,30.01,29.93,153,32,14,0.00
2013-9-23,85.5,67.0,55.3,58.2,54.3,50.2,89,68,34,30.02,29.91,11,2,14,0.00
2013-9-24,76.7,65.2,56.2,58.6,54.8,49.8,92,71,46,30.00,29.92,12,2,14,0.00
2013-9-25,69.1,59.4,52.0,51.5,48.1,43.9,89,69,44,29.96,29.84,16,3,19,0.00
2013-9-26,69.8,57.4,48.3,50.0,47.0,41.2,91,71,36,30.00,29.84,13,2,17,0.00
2013-9-27,75.8,61.0,49.5,47.4,43.2,38.9,86,56,27,30.09,29.99,13,3,16,0.00
2013-9-28,84.5,65.2,51.6,51.1,40.3,32.5,77,44,17,30.09,30.01,10,3,14,0.00
2013-9-29,78.6,64.4,56.6,59.4,55.2,46.0,92,74,44,30.12,30.06,13,3,14,0.00
2013-9-30,76.3,64.5,55.4,61.1,58.3,54.2,97,82,55,30.09,29.97,13,2,17,0.00
2013-10-1,68.8,60.4,53.1,58.1,52.4,47.1,96,77,47,30.04,29.94,11,2,13,0.00
2013-10-2,73.2,57.7,47.7,54.5,49.6,45.7,94,76,52,30.03,29.95,8,2,13,0.00
2013-10-3,72.7,59.4,47.0,48.8,43.5,33.6,92,61,28,30.06,29.93,12,2,14,0.00
2013-10-4,82.8,66.7,50.4,43.0,34.4,30.8,66,33,17,30.09,29.96,14,4,20,0.00
2013-10-5,89.9,71.4,57.5,35.7,30.9,24.6,40,25,10,30.18,30.09,12,3,18,0.00
2013-10-6,91.0,69.8,57.3,35.8,31.8,27.8,34,25,11,30.11,30.00,14,3,16,0.00
2013-10-7,80.5,63.3,53.5,51.5,37.0,26.7,89,43,19,30.00,29.91,11,2,16,0.00
2013-10-8,66.9,55.5,51.9,54.3,50.7,49.0,96,85,63,29.93,29.76,12,4,17,0.00
2013-10-9,63.9,55.3,50.1,50.2,48.1,45.3,93,78,56,29.79,29.66,11,3,13,0.00
2013-10-10,60.2,53.9,49.6,51.2,49.6,47.0,96,86,68,30.04,29.80,13,2,18,0.00
2013-10-11,67.4,54.5,49.1,52.0,49.2,47.4,94,83,57,30.10,30.00,11,2,14,0.00
2013-10-12,65.3,52.1,46.2,53.4,48.6,45.1,99,89,63,30.03,29.96,11,2,14,0.00
2013-10-13,71.3,55.8,49.6,54.7,50.3,47.9,97,84,54,30.07,29.95,9,1,14,0.00
2013-10-14,82.2,63.3,48.9,47.7,42.5,38.5,94,51,23,30.11,29.98,10,2,13,0.00
2013-10-15,83.8,67.8,53.2,41.7,37.1,31.5,57,35,16,30.03,29.92,11,4,17,0.00
2013-10-16,84.0,67.4,54.4,41.6,36.3,32.9,49,34,19,30.08,30.00,12,2,19,0.00
2013-10-17,82.0,65.3,55.1,49.7,38.2,29.8,79,40,21,30.08,29.97,10,2,13,0.00
2013-10-18,82.8,63.0,53.9,50.4,41.1,32.1,75,48,19,30.05,29.99,10,2,142,0.00
2013-10-19,58.6,58.4,54.7,50.4,43.4,39.4,75,59,49,30.06,30.01,1,1,2,0.00
2013-10-20,58.6,27.0,20.3,39.4,10.4,4.2,49,49,49,30.05,29.94,134,111,134,0.00
2013-10-21,20.3,20.3,20.3,4.2,4.2,4.2,49,49,49,30.01,29.94,134,134,0,0.00
2013-10-22,20.3,20.3,20.3,4.2,4.2,4.2,49,49,49,30.02,29.96,134,134,0,0.00
2013-10-23,20.3,20.3,20.3,4.2,4.2,4.2,49,49,49,30.00,29.93,134,134,0,0.00
2013-10-24,164.0,11.7,20.3,99.9,44.7,4.2,49,49,49,30.12,29.98,153,142,0,0.00
2013-10-25,164.0,0.0,164.0,99.9,99.9,99.9,49,49,49,30.17,30.08,153,153,0,0.00
2013-10-26,164.0,0.0,164.0,99.9,99.9,99.9,49,49,49,30.14,30.04,153,153,0,0.00
2013-10-27,164.0,0.0,164.0,99.9,99.9,99.9,49,49,49,30.06,29.77,153,153,0,0.00
2013-10-28,164.0,0.0,164.0,99.9,99.9,99.9,49,49,49,29.89,29.72,153,153,0,0.00
2013-10-29,164.0,26.4,50.8,99.9,75.3,45.0,91,61,49,30.06,29.89,153,82,14,0.00
2013-10-30,68.9,54.8,43.3,48.2,46.0,41.6,95,75,41,30.15,30.06,10,2,14,0.01
2013-10-31,75.3,58.3,43.8,49.0,44.6,39.8,88,64,28,30.19,30.06,11,3,14,0.00
2013-11-1,80.1,61.3,48.6,44.8,42.2,38.9,73,53,23,30.13,30.03,10,3,13,0.00
2013-11-2,69.8,57.9,51.7,51.8,44.7,37.8,90,63,38,30.03,29.93,9,2,13,0.00
2013-11-3,69.6,56.0,47.7,48.7,39.6,29.1,93,59,26,30.03,29.91,8,2,14,0.01
2013-11-4,69.8,55.6,43.8,41.7,36.1,27.8,78,52,22,30.05,29.91,6,1,12,0.00
2013-11-5,73.2,59.1,46.5,42.0,33.8,29.3,72,41,22,30.22,30.05,11,2,11,0.00
2013-11-6,79.8,61.7,47.1,38.1,30.7,26.5,49,33,15,30.25,30.15,11,3,17,0.00
2013-11-7,74.7,59.9,50.8,49.0,37.7,29.9,87,47,23,30.17,30.08,8,1,10,0.00
2013-11-8,77.4,59.3,46.7,51.6,44.2,34.1,84,59,28,30.08,29.95,11,2,13,0.00
2013-11-9,73.9,56.9,50.2,52.2,47.6,40.8,89,73,31,30.07,29.98,10,2,16,0.00
2013-11-10,62.7,53.7,48.8,51.2,49.1,46.5,96,86,63,30.14,30.05,14,2,16,0.00
2013-11-11,68.4,55.0,46.5,51.0,47.6,42.1,98,80,40,30.17,30.08,11,2,18,0.00
2013-11-12,74.6,59.7,52.6,52.1,48.2,43.8,86,68,34,30.26,30.15,11,2,22,0.00
2013-11-13,76.8,58.9,50.4,52.9,48.5,42.4,95,71,35,30.25,30.11,8,2,14,0.00
2013-11-14,66.9,51.5,44.2,56.8,48.6,43.2,98,91,62,30.13,29.92,12,1,13,0.01
2013-11-15,62.1,52.8,46.5,50.1,47.1,44.6,96,83,54,29.92,29.76,9,2,13,0.00
2013-11-16,60.7,52.8,48.5,49.6,47.4,43.8,94,83,54,29.96,29.80,12,2,14,0.00
2013-11-17,58.6,51.0,49.4,51.9,49.4,48.0,96,94,74,30.10,29.95,8,0,10,0.01
2013-11-18,58.7,56.6,53.3,48.0,46.6,44.2,81,70,60,30.16,30.10,12,4,14,0.00